sensor_id;sensor_type;location;lat;lon;timestamp;temperature;humidity
43087;DHT22;28708;52.224;6.924;2022-12-18T00:00:29;-5.20;99.90
43087;DHT22;28708;52.224;6.924;2022-12-18T00:02:55;-5.20;99.90
43087;DHT22;28708;52.224;6.924;2022-12-18T00:05:21;-5.30;99.90
43087;DHT22;28708;52.224;6.924;2022-12-18T00:07:47;-5.30;99.90
43087;DHT22;28708;52.224;6.924;2022-12-18T00:10:12;-5.30;99.90
43087;DHT22;28708;52.224;6.924;2022-12-18T00:12:38;-5.40;99.90
43087;DHT22;28708;52.224;6.924;2022-12-18T00:15:04;-5.40;99.90
43087;DHT22;28708;52.224;6.924;2022-12-18T00:17:30;-5.30;99.90
43087;DHT22;28708;52.224;6.924;2022-12-18T00:19:56;-5.20;99.90
43087;DHT22;28708;52.224;6.924;2022-12-18T00:22:21;-5.30;99.90
43087;DHT22;28708;52.224;6.924;2022-12-18T00:24:47;-5.30;99.90
43087;DHT22;28708;52.224;6.924;2022-12-18T00:27:12;-5.20;99.90
43087;DHT22;28708;52.224;6.924;2022-12-18T00:29:41;-5.20;99.90
43087;DHT22;28708;52.224;6.924;2022-12-18T00:32:06;-5.30;99.90
43087;DHT22;28708;52.224;6.924;2022-12-18T00:34:32;-5.30;99.90
43087;DHT22;28708;52.224;6.924;2022-12-18T00:36:58;-5.40;99.90
43087;DHT22;28708;52.224;6.924;2022-12-18T00:39:23;-5.40;99.90
43087;DHT22;28708;52.224;6.924;2022-12-18T00:41:49;-5.30;99.90
43087;DHT22;28708;52.224;6.924;2022-12-18T00:44:33;-5.30;99.90
43087;DHT22;28708;52.224;6.924;2022-12-18T00:46:59;-5.30;99.90
43087;DHT22;28708;52.224;6.924;2022-12-18T00:49:24;-5.20;99.90
43087;DHT22;28708;52.224;6.924;2022-12-18T00:51:50;-5.30;99.90
43087;DHT22;28708;52.224;6.924;2022-12-18T00:54:16;-5.30;99.90
43087;DHT22;28708;52.224;6.924;2022-12-18T00:56:43;-5.30;99.90
43087;DHT22;28708;52.224;6.924;2022-12-18T00:59:09;-5.30;99.90
43087;DHT22;28708;52.224;6.924;2022-12-18T01:01:34;-5.30;99.90
43087;DHT22;28708;52.224;6.924;2022-12-18T01:04:02;-5.40;99.90
43087;DHT22;28708;52.224;6.924;2022-12-18T01:06:27;-5.40;99.90
43087;DHT22;28708;52.224;6.924;2022-12-18T01:08:53;-5.40;99.90
43087;DHT22;28708;52.224;6.924;2022-12-18T01:11:20;-5.40;99.90
43087;DHT22;28708;52.224;6.924;2022-12-18T01:13:47;-5.40;99.90
43087;DHT22;28708;52.224;6.924;2022-12-18T01:16:16;-5.40;99.90
43087;DHT22;28708;52.224;6.924;2022-12-18T01:18:42;-5.50;99.90
43087;DHT22;28708;52.224;6.924;2022-12-18T01:21:10;-5.60;99.90
43087;DHT22;28708;52.224;6.924;2022-12-18T01:23:36;-5.50;99.90
43087;DHT22;28708;52.224;6.924;2022-12-18T01:26:11;-5.50;99.90
43087;DHT22;28708;52.224;6.924;2022-12-18T01:28:39;-5.40;99.90
43087;DHT22;28708;52.224;6.924;2022-12-18T01:33:40;-5.50;99.90
43087;DHT22;28708;52.224;6.924;2022-12-18T01:36:06;-5.40;99.90
43087;DHT22;28708;52.224;6.924;2022-12-18T01:38:32;-5.40;99.90
43087;DHT22;28708;52.224;6.924;2022-12-18T01:40:59;-5.50;99.90
43087;DHT22;28708;52.224;6.924;2022-12-18T01:43:54;-5.50;99.90
43087;DHT22;28708;52.224;6.924;2022-12-18T01:46:26;-5.60;99.90
43087;DHT22;28708;52.224;6.924;2022-12-18T01:49:00;-5.60;99.90
43087;DHT22;28708;52.224;6.924;2022-12-18T01:51:27;-5.60;99.90
43087;DHT22;28708;52.224;6.924;2022-12-18T01:53:55;-5.60;99.90
43087;DHT22;28708;52.224;6.924;2022-12-18T01:56:21;-5.60;99.90
43087;DHT22;28708;52.224;6.924;2022-12-18T01:58:54;-5.60;99.90
43087;DHT22;28708;52.224;6.924;2022-12-18T02:01:23;-5.50;99.90
43087;DHT22;28708;52.224;6.924;2022-12-18T02:03:49;-5.60;99.90
43087;DHT22;28708;52.224;6.924;2022-12-18T02:06:34;-5.60;99.90
43087;DHT22;28708;52.224;6.924;2022-12-18T02:09:16;-5.60;99.90
43087;DHT22;28708;52.224;6.924;2022-12-18T02:11:51;-5.70;99.90
43087;DHT22;28708;52.224;6.924;2022-12-18T02:14:58;-5.60;99.90
43087;DHT22;28708;52.224;6.924;2022-12-18T02:25:58;-5.60;99.90
43087;DHT22;28708;52.224;6.924;2022-12-18T02:28:32;-5.60;99.90
43087;DHT22;28708;52.224;6.924;2022-12-18T02:31:05;-5.70;99.90
43087;DHT22;28708;52.224;6.924;2022-12-18T02:33:35;-5.70;99.90
43087;DHT22;28708;52.224;6.924;2022-12-18T02:36:02;-5.70;99.90
43087;DHT22;28708;52.224;6.924;2022-12-18T02:38:30;-5.80;99.90
43087;DHT22;28708;52.224;6.924;2022-12-18T02:41:04;-5.80;99.90
43087;DHT22;28708;52.224;6.924;2022-12-18T02:43:30;-5.80;99.90
43087;DHT22;28708;52.224;6.924;2022-12-18T02:45:59;-5.90;99.90
43087;DHT22;28708;52.224;6.924;2022-12-18T02:48:34;-5.90;99.90
43087;DHT22;28708;52.224;6.924;2022-12-18T02:51:18;-5.90;99.90
43087;DHT22;28708;52.224;6.924;2022-12-18T02:54:18;-5.90;99.90
43087;DHT22;28708;52.224;6.924;2022-12-18T02:56:51;-6.00;99.90
43087;DHT22;28708;52.224;6.924;2022-12-18T02:59:30;-6.00;99.90
43087;DHT22;28708;52.224;6.924;2022-12-18T03:04:47;-6.10;99.90
43087;DHT22;28708;52.224;6.924;2022-12-18T03:07:21;-6.00;99.90
43087;DHT22;28708;52.224;6.924;2022-12-18T03:09:54;-6.00;99.90
43087;DHT22;28708;52.224;6.924;2022-12-18T03:12:34;-6.00;99.90
43087;DHT22;28708;52.224;6.924;2022-12-18T03:15:16;-6.00;99.90
43087;DHT22;28708;52.224;6.924;2022-12-18T03:17:48;-6.10;99.90
43087;DHT22;28708;52.224;6.924;2022-12-18T03:20:19;-6.10;99.90
43087;DHT22;28708;52.224;6.924;2022-12-18T03:22:53;-6.10;99.90
43087;DHT22;28708;52.224;6.924;2022-12-18T03:25:20;-6.10;99.90
43087;DHT22;28708;52.224;6.924;2022-12-18T03:27:49;-6.10;99.90
43087;DHT22;28708;52.224;6.924;2022-12-18T03:30:17;-6.10;99.90
43087;DHT22;28708;52.224;6.924;2022-12-18T03:35:43;-6.20;99.90
43087;DHT22;28708;52.224;6.924;2022-12-18T03:38:11;-6.20;99.90
43087;DHT22;28708;52.224;6.924;2022-12-18T03:40:47;-6.30;99.90
43087;DHT22;28708;52.224;6.924;2022-12-18T03:43:30;-6.30;99.90
43087;DHT22;28708;52.224;6.924;2022-12-18T03:46:06;-6.30;99.90
43087;DHT22;28708;52.224;6.924;2022-12-18T03:48:40;-6.20;99.90
43087;DHT22;28708;52.224;6.924;2022-12-18T03:51:26;-6.30;99.90
43087;DHT22;28708;52.224;6.924;2022-12-18T03:54:02;-6.30;99.90
43087;DHT22;28708;52.224;6.924;2022-12-18T03:56:37;-6.30;99.90
43087;DHT22;28708;52.224;6.924;2022-12-18T03:59:05;-6.30;99.90
43087;DHT22;28708;52.224;6.924;2022-12-18T04:01:39;-6.30;99.90
43087;DHT22;28708;52.224;6.924;2022-12-18T04:04:06;-6.20;99.90
43087;DHT22;28708;52.224;6.924;2022-12-18T04:06:37;-6.10;99.90
43087;DHT22;28708;52.224;6.924;2022-12-18T04:09:04;-6.00;99.90
43087;DHT22;28708;52.224;6.924;2022-12-18T04:11:34;-6.00;99.90
43087;DHT22;28708;52.224;6.924;2022-12-18T04:14:02;-6.00;99.90
43087;DHT22;28708;52.224;6.924;2022-12-18T04:16:28;-6.00;99.90
43087;DHT22;28708;52.224;6.924;2022-12-18T04:18:58;-6.00;99.90
43087;DHT22;28708;52.224;6.924;2022-12-18T04:21:25;-6.10;99.90
43087;DHT22;28708;52.224;6.924;2022-12-18T04:23:52;-6.10;99.90
43087;DHT22;28708;52.224;6.924;2022-12-18T04:26:20;-6.10;99.90
43087;DHT22;28708;52.224;6.924;2022-12-18T04:28:56;-6.10;99.90
43087;DHT22;28708;52.224;6.924;2022-12-18T04:31:22;-6.10;99.90
43087;DHT22;28708;52.224;6.924;2022-12-18T04:33:47;-6.00;99.90
43087;DHT22;28708;52.224;6.924;2022-12-18T04:36:13;-6.00;99.90
43087;DHT22;28708;52.224;6.924;2022-12-18T04:38:40;-6.10;99.90
43087;DHT22;28708;52.224;6.924;2022-12-18T04:41:12;-6.00;99.90
43087;DHT22;28708;52.224;6.924;2022-12-18T04:43:39;-6.10;99.90
43087;DHT22;28708;52.224;6.924;2022-12-18T04:46:07;-6.10;99.90
43087;DHT22;28708;52.224;6.924;2022-12-18T04:48:33;-6.10;99.90
43087;DHT22;28708;52.224;6.924;2022-12-18T04:51:01;-6.20;99.90
43087;DHT22;28708;52.224;6.924;2022-12-18T04:53:27;-6.20;99.90
43087;DHT22;28708;52.224;6.924;2022-12-18T04:56:22;-6.20;99.90
43087;DHT22;28708;52.224;6.924;2022-12-18T04:58:48;-6.20;99.90
43087;DHT22;28708;52.224;6.924;2022-12-18T05:01:15;-6.20;99.90
43087;DHT22;28708;52.224;6.924;2022-12-18T05:03:41;-6.20;99.90
43087;DHT22;28708;52.224;6.924;2022-12-18T05:06:07;-6.20;99.90
43087;DHT22;28708;52.224;6.924;2022-12-18T05:08:33;-6.20;99.90
43087;DHT22;28708;52.224;6.924;2022-12-18T05:11:08;-6.20;99.90
43087;DHT22;28708;52.224;6.924;2022-12-18T05:13:35;-6.20;99.90
43087;DHT22;28708;52.224;6.924;2022-12-18T05:16:01;-6.20;99.90
43087;DHT22;28708;52.224;6.924;2022-12-18T05:18:27;-6.20;99.90
43087;DHT22;28708;52.224;6.924;2022-12-18T05:20:54;-6.20;99.90
43087;DHT22;28708;52.224;6.924;2022-12-18T05:23:21;-6.20;99.90
43087;DHT22;28708;52.224;6.924;2022-12-18T05:26:16;-6.30;99.90
43087;DHT22;28708;52.224;6.924;2022-12-18T05:28:42;-6.20;99.90
43087;DHT22;28708;52.224;6.924;2022-12-18T05:31:08;-6.20;99.90
43087;DHT22;28708;52.224;6.924;2022-12-18T05:33:34;-6.20;99.90
43087;DHT22;28708;52.224;6.924;2022-12-18T05:36:05;-6.30;99.90
43087;DHT22;28708;52.224;6.924;2022-12-18T05:38:32;-6.30;99.90
43087;DHT22;28708;52.224;6.924;2022-12-18T05:40:58;-6.30;99.90
43087;DHT22;28708;52.224;6.924;2022-12-18T05:43:25;-6.40;99.90
43087;DHT22;28708;52.224;6.924;2022-12-18T05:45:52;-6.40;99.90
43087;DHT22;28708;52.224;6.924;2022-12-18T05:48:18;-6.40;99.90
43087;DHT22;28708;52.224;6.924;2022-12-18T05:50:46;-6.40;99.90
43087;DHT22;28708;52.224;6.924;2022-12-18T05:53:13;-6.40;99.90
43087;DHT22;28708;52.224;6.924;2022-12-18T05:55:41;-6.40;99.90
43087;DHT22;28708;52.224;6.924;2022-12-18T05:58:08;-6.40;99.90
43087;DHT22;28708;52.224;6.924;2022-12-18T06:00:37;-6.40;99.90
43087;DHT22;28708;52.224;6.924;2022-12-18T06:03:06;-6.40;99.90
43087;DHT22;28708;52.224;6.924;2022-12-18T06:05:36;-6.40;99.90
43087;DHT22;28708;52.224;6.924;2022-12-18T06:08:02;-6.40;99.90
43087;DHT22;28708;52.224;6.924;2022-12-18T06:10:28;-6.40;99.90
43087;DHT22;28708;52.224;6.924;2022-12-18T06:12:53;-6.40;99.90
43087;DHT22;28708;52.224;6.924;2022-12-18T06:15:19;-6.40;99.90
43087;DHT22;28708;52.224;6.924;2022-12-18T06:17:45;-6.40;99.90
43087;DHT22;28708;52.224;6.924;2022-12-18T06:20:10;-6.40;99.90
43087;DHT22;28708;52.224;6.924;2022-12-18T06:22:36;-6.40;99.90
43087;DHT22;28708;52.224;6.924;2022-12-18T06:25:02;-6.50;99.90
43087;DHT22;28708;52.224;6.924;2022-12-18T06:27:27;-6.50;99.90
43087;DHT22;28708;52.224;6.924;2022-12-18T06:29:53;-6.50;99.90
43087;DHT22;28708;52.224;6.924;2022-12-18T06:32:19;-6.50;99.90
43087;DHT22;28708;52.224;6.924;2022-12-18T06:34:44;-6.50;99.90
43087;DHT22;28708;52.224;6.924;2022-12-18T06:37:10;-6.50;99.90
43087;DHT22;28708;52.224;6.924;2022-12-18T06:39:35;-6.60;99.90
43087;DHT22;28708;52.224;6.924;2022-12-18T06:42:01;-6.60;99.90
43087;DHT22;28708;52.224;6.924;2022-12-18T06:44:28;-6.60;99.90
43087;DHT22;28708;52.224;6.924;2022-12-18T06:46:53;-6.60;99.90
43087;DHT22;28708;52.224;6.924;2022-12-18T06:49:19;-6.50;99.90
43087;DHT22;28708;52.224;6.924;2022-12-18T06:51:45;-6.60;99.90
43087;DHT22;28708;52.224;6.924;2022-12-18T06:54:10;-6.60;99.90
43087;DHT22;28708;52.224;6.924;2022-12-18T06:56:36;-6.60;99.90
43087;DHT22;28708;52.224;6.924;2022-12-18T06:59:01;-6.60;99.90
43087;DHT22;28708;52.224;6.924;2022-12-18T07:01:27;-6.60;99.90
43087;DHT22;28708;52.224;6.924;2022-12-18T07:03:55;-6.50;99.90
43087;DHT22;28708;52.224;6.924;2022-12-18T07:06:23;-6.50;99.90
43087;DHT22;28708;52.224;6.924;2022-12-18T07:08:50;-6.50;99.90
43087;DHT22;28708;52.224;6.924;2022-12-18T07:11:17;-6.50;99.90
43087;DHT22;28708;52.224;6.924;2022-12-18T07:13:43;-6.50;99.90
43087;DHT22;28708;52.224;6.924;2022-12-18T07:16:11;-6.50;99.90
43087;DHT22;28708;52.224;6.924;2022-12-18T07:18:37;-6.40;99.90
43087;DHT22;28708;52.224;6.924;2022-12-18T07:21:08;-6.50;99.90
43087;DHT22;28708;52.224;6.924;2022-12-18T07:23:35;-6.50;99.90
43087;DHT22;28708;52.224;6.924;2022-12-18T07:26:09;-6.40;99.90
43087;DHT22;28708;52.224;6.924;2022-12-18T07:28:36;-6.40;99.90
43087;DHT22;28708;52.224;6.924;2022-12-18T07:31:06;-6.40;99.90
43087;DHT22;28708;52.224;6.924;2022-12-18T07:33:33;-6.40;99.90
43087;DHT22;28708;52.224;6.924;2022-12-18T07:36:00;-6.40;99.90
43087;DHT22;28708;52.224;6.924;2022-12-18T07:38:25;-6.40;99.90
43087;DHT22;28708;52.224;6.924;2022-12-18T07:40:51;-6.50;99.90
43087;DHT22;28708;52.224;6.924;2022-12-18T07:43:17;-6.40;99.90
43087;DHT22;28708;52.224;6.924;2022-12-18T07:45:43;-6.40;99.90
43087;DHT22;28708;52.224;6.924;2022-12-18T07:48:10;-6.40;99.90
43087;DHT22;28708;52.224;6.924;2022-12-18T07:50:36;-6.30;99.90
43087;DHT22;28708;52.224;6.924;2022-12-18T07:53:02;-6.30;99.90
43087;DHT22;28708;52.224;6.924;2022-12-18T07:55:31;-6.30;99.90
43087;DHT22;28708;52.224;6.924;2022-12-18T07:57:57;-6.30;99.90
43087;DHT22;28708;52.224;6.924;2022-12-18T08:00:22;-6.30;99.90
43087;DHT22;28708;52.224;6.924;2022-12-18T08:02:48;-6.30;99.90
43087;DHT22;28708;52.224;6.924;2022-12-18T08:05:14;-6.20;99.90
43087;DHT22;28708;52.224;6.924;2022-12-18T08:07:40;-6.20;99.90
43087;DHT22;28708;52.224;6.924;2022-12-18T08:10:06;-6.10;99.90
43087;DHT22;28708;52.224;6.924;2022-12-18T08:12:32;-6.20;99.90
43087;DHT22;28708;52.224;6.924;2022-12-18T08:14:58;-6.10;99.90
43087;DHT22;28708;52.224;6.924;2022-12-18T08:17:23;-6.10;99.90
43087;DHT22;28708;52.224;6.924;2022-12-18T08:19:49;-6.10;99.90
43087;DHT22;28708;52.224;6.924;2022-12-18T08:22:15;-6.00;99.90
43087;DHT22;28708;52.224;6.924;2022-12-18T08:24:40;-6.00;99.90
43087;DHT22;28708;52.224;6.924;2022-12-18T08:27:06;-5.90;99.90
43087;DHT22;28708;52.224;6.924;2022-12-18T08:29:32;-5.80;99.90
43087;DHT22;28708;52.224;6.924;2022-12-18T08:31:59;-5.70;99.90
43087;DHT22;28708;52.224;6.924;2022-12-18T08:34:26;-5.70;99.90
43087;DHT22;28708;52.224;6.924;2022-12-18T08:36:51;-5.60;99.90
43087;DHT22;28708;52.224;6.924;2022-12-18T08:39:17;-5.60;99.90
43087;DHT22;28708;52.224;6.924;2022-12-18T08:41:43;-5.50;99.90
43087;DHT22;28708;52.224;6.924;2022-12-18T08:44:28;-5.40;99.90
43087;DHT22;28708;52.224;6.924;2022-12-18T08:47:04;-5.40;99.90
43087;DHT22;28708;52.224;6.924;2022-12-18T08:49:29;-5.30;99.90
43087;DHT22;28708;52.224;6.924;2022-12-18T08:51:56;-5.30;99.90
43087;DHT22;28708;52.224;6.924;2022-12-18T08:54:25;-5.20;99.90
43087;DHT22;28708;52.224;6.924;2022-12-18T08:56:51;-5.10;99.90
43087;DHT22;28708;52.224;6.924;2022-12-18T08:59:18;-5.00;99.90
43087;DHT22;28708;52.224;6.924;2022-12-18T09:01:44;-5.00;99.90
43087;DHT22;28708;52.224;6.924;2022-12-18T09:04:10;-4.90;99.90
43087;DHT22;28708;52.224;6.924;2022-12-18T09:06:36;-4.80;99.90
43087;DHT22;28708;52.224;6.924;2022-12-18T09:09:04;-4.70;99.90
43087;DHT22;28708;52.224;6.924;2022-12-18T09:11:30;-4.50;99.90
43087;DHT22;28708;52.224;6.924;2022-12-18T09:13:56;-4.30;99.90
43087;DHT22;28708;52.224;6.924;2022-12-18T09:16:23;-4.10;99.90
43087;DHT22;28708;52.224;6.924;2022-12-18T09:18:49;-4.00;99.90
43087;DHT22;28708;52.224;6.924;2022-12-18T09:21:18;-3.80;99.90
43087;DHT22;28708;52.224;6.924;2022-12-18T09:23:45;-3.70;99.90
43087;DHT22;28708;52.224;6.924;2022-12-18T09:26:14;-3.40;99.90
43087;DHT22;28708;52.224;6.924;2022-12-18T09:28:40;-3.10;99.90
43087;DHT22;28708;52.224;6.924;2022-12-18T09:31:07;-2.70;99.90
43087;DHT22;28708;52.224;6.924;2022-12-18T09:33:36;-2.00;99.90
43087;DHT22;28708;52.224;6.924;2022-12-18T09:36:04;-1.10;99.90
43087;DHT22;28708;52.224;6.924;2022-12-18T09:38:30;0.30;99.90
43087;DHT22;28708;52.224;6.924;2022-12-18T09:41:00;1.50;99.90
43087;DHT22;28708;52.224;6.924;2022-12-18T09:46:05;2.60;99.90
43087;DHT22;28708;52.224;6.924;2022-12-18T09:48:35;2.30;99.90
43087;DHT22;28708;52.224;6.924;2022-12-18T09:51:13;2.20;99.90
43087;DHT22;28708;52.224;6.924;2022-12-18T09:53:45;1.70;99.90
43087;DHT22;28708;52.224;6.924;2022-12-18T09:56:16;1.30;99.90
43087;DHT22;28708;52.224;6.924;2022-12-18T09:59:00;0.90;99.90
43087;DHT22;28708;52.224;6.924;2022-12-18T10:01:28;0.50;99.90
43087;DHT22;28708;52.224;6.924;2022-12-18T10:03:54;0.30;99.90
43087;DHT22;28708;52.224;6.924;2022-12-18T10:06:28;0.20;99.90
43087;DHT22;28708;52.224;6.924;2022-12-18T10:14:29;-1.10;99.90
43087;DHT22;28708;52.224;6.924;2022-12-18T10:19:33;-1.30;99.90
43087;DHT22;28708;52.224;6.924;2022-12-18T10:24:54;-1.40;99.90
43087;DHT22;28708;52.224;6.924;2022-12-18T10:27:26;-1.40;99.90
43087;DHT22;28708;52.224;6.924;2022-12-18T10:29:52;-1.50;99.90
43087;DHT22;28708;52.224;6.924;2022-12-18T10:32:27;-1.50;99.90
43087;DHT22;28708;52.224;6.924;2022-12-18T10:34:57;-1.20;99.90
43087;DHT22;28708;52.224;6.924;2022-12-18T10:37:25;-1.10;99.90
43087;DHT22;28708;52.224;6.924;2022-12-18T10:40:13;-1.20;99.90
43087;DHT22;28708;52.224;6.924;2022-12-18T10:42:39;-1.00;99.90
43087;DHT22;28708;52.224;6.924;2022-12-18T10:45:16;-0.90;99.90
43087;DHT22;28708;52.224;6.924;2022-12-18T10:47:49;-0.80;99.90
43087;DHT22;28708;52.224;6.924;2022-12-18T10:50:35;-0.50;99.90
43087;DHT22;28708;52.224;6.924;2022-12-18T10:53:04;-0.60;99.90
43087;DHT22;28708;52.224;6.924;2022-12-18T10:55:37;-0.70;99.90
43087;DHT22;28708;52.224;6.924;2022-12-18T10:58:16;-0.50;99.90
43087;DHT22;28708;52.224;6.924;2022-12-18T11:00:42;-0.50;99.90
43087;DHT22;28708;52.224;6.924;2022-12-18T11:03:34;-0.40;99.90
43087;DHT22;28708;52.224;6.924;2022-12-18T11:06:06;-0.40;99.90
43087;DHT22;28708;52.224;6.924;2022-12-18T11:08:32;-0.70;99.90
43087;DHT22;28708;52.224;6.924;2022-12-18T11:10:58;-0.80;99.90
43087;DHT22;28708;52.224;6.924;2022-12-18T11:13:26;-1.10;99.90
43087;DHT22;28708;52.224;6.924;2022-12-18T11:15:52;-1.20;99.90
43087;DHT22;28708;52.224;6.924;2022-12-18T11:18:28;-1.30;99.90
43087;DHT22;28708;52.224;6.924;2022-12-18T11:21:06;-1.20;99.90
43087;DHT22;28708;52.224;6.924;2022-12-18T11:23:34;-1.20;99.90
43087;DHT22;28708;52.224;6.924;2022-12-18T11:26:02;-1.30;99.90
43087;DHT22;28708;52.224;6.924;2022-12-18T11:28:52;-1.30;99.90
43087;DHT22;28708;52.224;6.924;2022-12-18T11:31:27;-1.30;99.90
43087;DHT22;28708;52.224;6.924;2022-12-18T11:36:22;-1.30;99.90
43087;DHT22;28708;52.224;6.924;2022-12-18T11:38:50;-1.40;99.90
43087;DHT22;28708;52.224;6.924;2022-12-18T11:41:25;-1.40;99.90
43087;DHT22;28708;52.224;6.924;2022-12-18T11:44:24;-1.40;99.90
43087;DHT22;28708;52.224;6.924;2022-12-18T11:46:55;-1.40;99.90
43087;DHT22;28708;52.224;6.924;2022-12-18T11:49:32;-1.40;99.90
43087;DHT22;28708;52.224;6.924;2022-12-18T11:52:38;-1.30;99.90
43087;DHT22;28708;52.224;6.924;2022-12-18T11:55:14;-1.30;99.90
43087;DHT22;28708;52.224;6.924;2022-12-18T11:58:09;-1.30;99.90
43087;DHT22;28708;52.224;6.924;2022-12-18T12:01:28;-1.30;99.90
43087;DHT22;28708;52.224;6.924;2022-12-18T12:03:37;-1.30;99.90
43087;DHT22;28708;52.224;6.924;2022-12-18T12:06:50;-1.20;99.90
43087;DHT22;28708;52.224;6.924;2022-12-18T12:11:41;-1.10;99.90
43087;DHT22;28708;52.224;6.924;2022-12-18T12:20:06;-1.10;99.90
43087;DHT22;28708;52.224;6.924;2022-12-18T12:22:49;-1.10;99.90
43087;DHT22;28708;52.224;6.924;2022-12-18T12:25:40;-1.10;99.90
43087;DHT22;28708;52.224;6.924;2022-12-18T12:31:07;-1.00;99.90
43087;DHT22;28708;52.224;6.924;2022-12-18T12:39:08;-1.10;99.90
43087;DHT22;28708;52.224;6.924;2022-12-18T12:41:35;-1.00;99.90
43087;DHT22;28708;52.224;6.924;2022-12-18T12:44:33;-1.00;99.90
43087;DHT22;28708;52.224;6.924;2022-12-18T12:47:09;-1.00;99.90
43087;DHT22;28708;52.224;6.924;2022-12-18T12:49:37;-1.00;99.90
43087;DHT22;28708;52.224;6.924;2022-12-18T12:52:16;-1.00;99.90
43087;DHT22;28708;52.224;6.924;2022-12-18T12:54:43;-1.00;99.90
43087;DHT22;28708;52.224;6.924;2022-12-18T12:57:24;-1.00;99.90
43087;DHT22;28708;52.224;6.924;2022-12-18T13:05:30;-1.00;99.90
43087;DHT22;28708;52.224;6.924;2022-12-18T13:08:10;-0.90;99.90
43087;DHT22;28708;52.224;6.924;2022-12-18T13:10:39;-0.90;99.90
43087;DHT22;28708;52.224;6.924;2022-12-18T13:15:44;-0.90;99.90
43087;DHT22;28708;52.224;6.924;2022-12-18T13:20:47;-0.80;99.90
43087;DHT22;28708;52.224;6.924;2022-12-18T13:26:00;-0.80;99.90
43087;DHT22;28708;52.224;6.924;2022-12-18T13:34:20;-0.90;99.90
43087;DHT22;28708;52.224;6.924;2022-12-18T13:36:47;-0.90;99.90
43087;DHT22;28708;52.224;6.924;2022-12-18T13:41:54;-0.90;99.90
43087;DHT22;28708;52.224;6.924;2022-12-18T13:44:58;-0.90;99.90
43087;DHT22;28708;52.224;6.924;2022-12-18T13:47:35;-0.90;99.90
43087;DHT22;28708;52.224;6.924;2022-12-18T13:50:20;-0.90;99.90
43087;DHT22;28708;52.224;6.924;2022-12-18T13:52:51;-1.00;99.90
43087;DHT22;28708;52.224;6.924;2022-12-18T13:55:19;-0.90;99.90
43087;DHT22;28708;52.224;6.924;2022-12-18T13:57:45;-1.00;99.90
43087;DHT22;28708;52.224;6.924;2022-12-18T14:00:28;-0.90;99.90
43087;DHT22;28708;52.224;6.924;2022-12-18T14:02:55;-0.90;99.90
43087;DHT22;28708;52.224;6.924;2022-12-18T14:05:24;-1.00;99.90
43087;DHT22;28708;52.224;6.924;2022-12-18T14:07:52;-0.90;99.90
43087;DHT22;28708;52.224;6.924;2022-12-18T14:10:18;-0.90;99.90
43087;DHT22;28708;52.224;6.924;2022-12-18T14:12:48;-1.00;99.90
43087;DHT22;28708;52.224;6.924;2022-12-18T14:15:30;-1.00;99.90
43087;DHT22;28708;52.224;6.924;2022-12-18T14:20:56;-1.00;99.90
43087;DHT22;28708;52.224;6.924;2022-12-18T14:23:31;-1.00;99.90
43087;DHT22;28708;52.224;6.924;2022-12-18T14:25:58;-1.00;99.90
43087;DHT22;28708;52.224;6.924;2022-12-18T14:28:24;-1.00;99.90
43087;DHT22;28708;52.224;6.924;2022-12-18T14:30:52;-1.00;99.90
43087;DHT22;28708;52.224;6.924;2022-12-18T14:33:23;-1.00;99.90
43087;DHT22;28708;52.224;6.924;2022-12-18T14:35:53;-1.00;99.90
43087;DHT22;28708;52.224;6.924;2022-12-18T14:41:05;-1.00;99.90
43087;DHT22;28708;52.224;6.924;2022-12-18T14:43:34;-1.00;99.90
43087;DHT22;28708;52.224;6.924;2022-12-18T14:46:00;-1.00;99.90
43087;DHT22;28708;52.224;6.924;2022-12-18T14:48:41;-1.00;99.90
43087;DHT22;28708;52.224;6.924;2022-12-18T14:51:24;-1.00;99.90
43087;DHT22;28708;52.224;6.924;2022-12-18T14:54:04;-1.00;99.90
43087;DHT22;28708;52.224;6.924;2022-12-18T14:56:35;-1.00;99.90
43087;DHT22;28708;52.224;6.924;2022-12-18T14:59:03;-1.00;99.90
43087;DHT22;28708;52.224;6.924;2022-12-18T15:01:35;-1.00;99.90
43087;DHT22;28708;52.224;6.924;2022-12-18T15:04:03;-1.00;99.90
43087;DHT22;28708;52.224;6.924;2022-12-18T15:06:37;-0.90;99.90
43087;DHT22;28708;52.224;6.924;2022-12-18T15:09:23;-1.00;99.90
43087;DHT22;28708;52.224;6.924;2022-12-18T15:11:49;-0.90;99.90
43087;DHT22;28708;52.224;6.924;2022-12-18T15:16:59;-0.90;99.90
43087;DHT22;28708;52.224;6.924;2022-12-18T15:19:40;-0.90;99.90
43087;DHT22;28708;52.224;6.924;2022-12-18T15:22:28;-0.90;99.90
43087;DHT22;28708;52.224;6.924;2022-12-18T15:24:58;-0.90;99.90
43087;DHT22;28708;52.224;6.924;2022-12-18T15:27:34;-0.90;99.90
43087;DHT22;28708;52.224;6.924;2022-12-18T15:32:36;-1.00;99.90
43087;DHT22;28708;52.224;6.924;2022-12-18T15:37:40;-1.00;99.90
43087;DHT22;28708;52.224;6.924;2022-12-18T15:40:06;-1.00;99.90
43087;DHT22;28708;52.224;6.924;2022-12-18T15:42:33;-1.00;99.90
43087;DHT22;28708;52.224;6.924;2022-12-18T15:45:17;-0.90;99.90
43087;DHT22;28708;52.224;6.924;2022-12-18T15:47:43;-0.90;99.90
43087;DHT22;28708;52.224;6.924;2022-12-18T15:50:09;-1.00;99.90
43087;DHT22;28708;52.224;6.924;2022-12-18T15:52:43;-0.90;99.90
43087;DHT22;28708;52.224;6.924;2022-12-18T15:55:14;-0.90;99.90
43087;DHT22;28708;52.224;6.924;2022-12-18T15:57:58;-0.90;99.90
43087;DHT22;28708;52.224;6.924;2022-12-18T16:00:24;-0.90;99.90
43087;DHT22;28708;52.224;6.924;2022-12-18T16:02:50;-0.90;99.90
43087;DHT22;28708;52.224;6.924;2022-12-18T16:05:17;-0.80;99.90
43087;DHT22;28708;52.224;6.924;2022-12-18T16:07:43;-0.80;99.90
43087;DHT22;28708;52.224;6.924;2022-12-18T16:10:10;-0.80;99.90
43087;DHT22;28708;52.224;6.924;2022-12-18T16:12:36;-0.70;99.90
43087;DHT22;28708;52.224;6.924;2022-12-18T16:15:03;-0.70;99.90
43087;DHT22;28708;52.224;6.924;2022-12-18T16:17:29;-0.80;99.90
43087;DHT22;28708;52.224;6.924;2022-12-18T16:19:55;-0.80;99.90
43087;DHT22;28708;52.224;6.924;2022-12-18T16:24:48;-0.70;99.90
43087;DHT22;28708;52.224;6.924;2022-12-18T16:27:14;-0.70;99.90
43087;DHT22;28708;52.224;6.924;2022-12-18T16:29:40;-0.70;99.90
43087;DHT22;28708;52.224;6.924;2022-12-18T16:32:06;-0.70;99.90
43087;DHT22;28708;52.224;6.924;2022-12-18T16:34:33;-0.70;99.90
43087;DHT22;28708;52.224;6.924;2022-12-18T16:37:05;-0.60;99.90
43087;DHT22;28708;52.224;6.924;2022-12-18T16:39:32;-0.60;99.90
43087;DHT22;28708;52.224;6.924;2022-12-18T16:41:58;-0.60;99.90
43087;DHT22;28708;52.224;6.924;2022-12-18T16:44:24;-0.50;99.90
43087;DHT22;28708;52.224;6.924;2022-12-18T16:46:50;-0.50;99.90
43087;DHT22;28708;52.224;6.924;2022-12-18T16:49:17;-0.50;99.90
43087;DHT22;28708;52.224;6.924;2022-12-18T16:51:43;-0.50;99.90
43087;DHT22;28708;52.224;6.924;2022-12-18T16:54:10;-0.50;99.90
43087;DHT22;28708;52.224;6.924;2022-12-18T16:56:36;-0.50;99.90
43087;DHT22;28708;52.224;6.924;2022-12-18T16:59:03;-0.50;99.90
43087;DHT22;28708;52.224;6.924;2022-12-18T17:01:31;-0.50;99.90
43087;DHT22;28708;52.224;6.924;2022-12-18T17:04:02;-0.60;99.90
43087;DHT22;28708;52.224;6.924;2022-12-18T17:06:30;-0.50;99.90
43087;DHT22;28708;52.224;6.924;2022-12-18T17:09:01;-0.50;99.90
43087;DHT22;28708;52.224;6.924;2022-12-18T17:11:30;-0.60;99.90
43087;DHT22;28708;52.224;6.924;2022-12-18T17:13:56;-0.50;99.90
43087;DHT22;28708;52.224;6.924;2022-12-18T17:16:22;-0.50;99.90
43087;DHT22;28708;52.224;6.924;2022-12-18T17:18:48;-0.50;99.90